< < Back
Terminal Aerodrome Forecast


Current Version              Previous Versions:   1  2  3  4  5  6  7  8  9  

Terminal Aerodrome Forecast

979
FTUS42 KTAE 311120
TAFTLH
TAF
KTLH 311120Z 3112/0112 12003KT 6SM BR SCT250
     FM311300 18005KT P6SM BKN030
     FM311600 18008KT P6SM VCTS BKN035CB
      TEMPO 3118/3122 VRB15G25KT 3SM TSRA BR BKN030CB
     FM010100 14003KT P6SM SCT030 BKN100=



Latest METAR

267
SAUS80 KWBC 312300 RRB
MTRTLH
METAR KTLH 312253Z 24006KT 10SM FEW035 SCT060 BKN250 33/23 A2987 RMK AO2
SLP112 T03280233


USA.gov is the U.S. government's official web portal to all federal, state and local government web resources and services.